Time;durP1;ratioP1;P1;durP2;ratioP2;P2;SDS_P1;SDS_P2;PMS_P1;PMS_P2;Temp;Humidity;BMP_temperature;BMP_pressure;BME280_temperature;BME280_humidity;BME280_pressure;Samples;Min_cycle;Max_cycle;Signal;HPM_P1;HPM_P2
2022/05/19 00:00:25;;;;;;;;;11.50;11.50;;;;;25.97;51.49;100683.22;5095999;27;45614;-69
2022/05/19 00:02:51;;;;;;;;;11.25;11.25;;;;;25.93;51.44;100685.38;5096130;27;45482;-72
2022/05/19 00:05:16;;;;;;;;;11.00;10.50;;;;;25.89;51.06;100677.75;5093286;27;45422;-71
2022/05/19 00:07:41;;;;;;;;;10.50;10.50;;;;;25.92;51.25;100689.06;5074868;27;56759;-72
2022/05/19 00:10:08;;;;;;;;;13.75;11.00;;;;;25.93;51.32;100695.31;5082703;27;46014;-68
2022/05/19 00:12:33;;;;;;;;;10.00;8.50;;;;;25.93;51.40;100700.72;5095971;27;45523;-71
2022/05/19 00:14:59;;;;;;;;;13.00;11.00;;;;;25.91;51.63;100708.94;5095939;27;45585;-72
2022/05/19 00:17:24;;;;;;;;;11.25;11.25;;;;;25.88;51.18;100705.69;5095998;27;46582;-70
2022/05/19 00:19:50;;;;;;;;;10.50;10.50;;;;;25.88;51.63;100703.84;5096016;27;45491;-69
2022/05/19 00:22:16;;;;;;;;;13.75;13.50;;;;;25.89;52.08;100696.59;5095975;27;45609;-71
2022/05/19 00:24:42;;;;;;;;;10.25;10.25;;;;;25.88;51.76;100703.84;5095373;27;45518;-70
2022/05/19 00:27:07;;;;;;;;;13.25;13.00;;;;;25.87;51.97;100696.78;5095275;27;47009;-69
2022/05/19 00:29:33;;;;;;;;;11.75;11.25;;;;;25.88;51.81;100693.06;5096216;27;45445;-69
2022/05/19 00:31:58;;;;;;;;;13.00;11.50;;;;;25.85;51.79;100688.00;5084555;27;45570;-69
2022/05/19 00:34:24;;;;;;;;;14.50;13.25;;;;;25.85;52.05;100679.06;5077402;27;45524;-70
2022/05/19 00:36:57;;;;;;;;;11.75;11.25;;;;;25.85;51.93;100682.59;5075406;27;45481;-69
2022/05/19 00:39:22;;;;;;;;;12.00;12.00;;;;;25.75;52.00;100655.66;5094855;27;45465;-70
2022/05/19 00:42:43;;;;;;;;;10.50;10.50;;;;;25.81;51.88;100669.53;5095210;27;45525;-70
2022/05/19 00:44:33;;;;;;;;;14.75;14.75;;;;;25.84;51.78;100661.19;5075320;27;45494;-71
2022/05/19 00:46:58;;;;;;;;;12.50;12.00;;;;;25.82;51.86;100664.00;5074976;28;45490;-69
2022/05/19 00:49:28;;;;;;;;;14.00;11.00;;;;;25.81;51.86;100670.38;5072542;28;45513;-70
2022/05/19 00:52:02;;;;;;;;;15.25;13.25;;;;;25.79;51.84;100656.22;5075070;27;45560;-72
2022/05/19 00:54:34;;;;;;;;;11.00;11.00;;;;;25.77;52.07;100651.00;5081591;27;45530;-71
2022/05/19 00:57:06;;;;;;;;;12.00;12.00;;;;;25.70;52.40;100638.28;5080911;27;46293;-69
2022/05/19 00:59:37;;;;;;;;;12.00;12.00;;;;;25.76;52.32;100652.00;5091512;27;45478;-70
2022/05/19 01:02:09;;;;;;;;;12.25;12.25;;;;;25.77;52.10;100647.44;5095109;27;45503;-69
2022/05/19 01:04:53;;;;;;;;;12.00;11.25;;;;;25.75;52.13;100647.59;5094625;27;45524;-69
2022/05/19 01:07:27;;;;;;;;;9.75;9.75;;;;;25.71;52.54;100646.22;5093410;27;45496;-66
2022/05/19 01:09:56;;;;;;;;;11.00;11.00;;;;;25.69;52.51;100642.81;5083512;27;45607;-68
2022/05/19 01:12:22;;;;;;;;;12.00;12.00;;;;;25.65;52.21;100633.31;5095051;27;45445;-67
2022/05/19 01:14:47;;;;;;;;;13.50;13.50;;;;;25.63;52.46;100635.34;5093907;27;45845;-70
2022/05/19 01:17:13;;;;;;;;;13.75;12.75;;;;;25.60;52.67;100630.25;5093239;27;46290;-70
2022/05/19 01:19:44;;;;;;;;;13.25;13.25;;;;;25.60;52.85;100638.31;5087700;27;45504;-68
2022/05/19 01:22:19;;;;;;;;;13.00;13.00;;;;;25.58;52.95;100632.25;5095059;27;45477;-68
2022/05/19 01:25:31;;;;;;;;;11.75;11.75;;;;;25.53;53.01;100632.69;5094858;27;45404;-69
2022/05/19 01:27:58;;;;;;;;;15.25;15.25;;;;;25.55;52.87;100632.56;5089920;27;46331;-69
2022/05/19 01:30:24;;;;;;;;;13.25;12.25;;;;;25.54;53.19;100637.06;5074345;27;45487;-70
2022/05/19 01:32:53;;;;;;;;;12.00;11.75;;;;;25.52;53.31;100638.22;5074385;28;45530;-67
2022/05/19 01:35:18;;;;;;;;;15.00;12.00;;;;;25.50;53.34;100635.69;5074535;27;45536;-69
2022/05/19 01:37:43;;;;;;;;;13.00;13.00;;;;;25.47;53.35;100636.00;5077851;27;45448;-69
2022/05/19 01:40:29;;;;;;;;;16.75;15.50;;;;;25.51;53.33;100641.94;5101729;27;45422;-69
2022/05/19 01:43:19;;;;;;;;;12.00;12.00;;;;;25.51;53.20;100641.94;5052113;27;45526;-71
2022/05/19 01:46:13;;;;;;;;;12.75;12.75;;;;;25.50;53.27;100648.31;5074099;27;45494;-69
2022/05/19 01:48:57;;;;;;;;;13.75;12.75;;;;;25.49;53.51;100647.44;5078676;27;46064;-69
2022/05/19 01:51:38;;;;;;;;;14.25;14.25;;;;;25.49;53.29;100646.59;5075479;27;45527;-68
2022/05/19 01:54:18;;;;;;;;;16.00;14.75;;;;;25.49;53.38;100654.69;5088204;27;45480;-70
2022/05/19 01:56:54;;;;;;;;;12.25;12.25;;;;;25.49;53.60;100649.31;5094781;27;45547;-69
2022/05/19 01:59:43;;;;;;;;;15.00;15.00;;;;;25.44;53.55;100646.22;5088581;27;46590;-69
2022/05/19 02:02:21;;;;;;;;;12.25;12.25;;;;;25.45;53.68;100647.91;5074000;27;45505;-70
2022/05/19 02:04:59;;;;;;;;;13.25;13.25;;;;;25.41;53.80;100643.81;5074077;28;45489;-71
2022/05/19 02:07:25;;;;;;;;;13.00;13.00;;;;;25.43;54.29;100647.22;5089650;27;45411;-70
2022/05/19 02:10:04;;;;;;;;;11.50;11.50;;;;;25.38;54.00;100649.50;5082739;27;45433;-69
2022/05/19 02:12:33;;;;;;;;;12.25;12.25;;;;;25.35;54.16;100651.50;5094138;27;45495;-68
2022/05/19 02:15:03;;;;;;;;;12.25;12.25;;;;;25.34;54.22;100638.19;5094266;27;45498;-70
2022/05/19 02:17:31;;;;;;;;;14.50;14.50;;;;;25.38;54.20;100646.81;5090281;27;46102;-70
2022/05/19 02:20:03;;;;;;;;;11.75;11.75;;;;;25.39;53.94;100649.38;5085642;27;46213;-70
2022/05/19 02:22:37;;;;;;;;;15.00;13.50;;;;;25.37;54.31;100656.75;5094155;27;45561;-68
2022/05/19 02:25:26;;;;;;;;;14.00;13.00;;;;;25.36;53.88;100652.34;5095734;27;45420;-69
2022/05/19 02:28:16;;;;;;;;;16.00;14.00;;;;;25.40;54.14;100655.59;5098034;27;45514;-66
2022/05/19 02:30:43;;;;;;;;;15.00;15.00;;;;;25.33;54.03;100650.81;5079133;27;45478;-70
2022/05/19 02:33:11;;;;;;;;;12.75;12.75;;;;;25.38;54.33;100653.03;5073271;27;45509;-69
2022/05/19 02:35:36;;;;;;;;;15.50;12.00;;;;;25.35;54.34;100651.50;5073413;27;45488;-69
2022/05/19 02:38:02;;;;;;;;;17.75;16.50;;;;;25.34;54.51;100654.34;5073308;27;45558;-68
2022/05/19 02:40:30;;;;;;;;;13.50;13.50;;;;;25.32;54.76;100667.09;5074221;27;45940;-71
2022/05/19 02:42:56;;;;;;;;;13.00;13.00;;;;;25.32;54.59;100661.72;5073389;28;45469;-71
2022/05/19 02:45:23;;;;;;;;;15.00;14.25;;;;;25.28;54.25;100655.78;5073439;27;45506;-71
2022/05/19 02:47:49;;;;;;;;;14.25;14.25;;;;;25.25;54.57;100647.97;5073517;27;45493;-69
2022/05/19 02:50:16;;;;;;;;;14.50;13.50;;;;;25.29;54.67;100664.72;5079819;27;46233;-71
2022/05/19 02:52:42;;;;;;;;;12.50;12.50;;;;;25.27;54.69;100659.47;5073108;27;45525;-70
2022/05/19 02:55:08;;;;;;;;;14.00;14.00;;;;;25.26;54.62;100660.47;5073439;27;45438;-70
2022/05/19 02:57:34;;;;;;;;;13.00;13.00;;;;;25.27;54.59;100667.53;5073066;27;45445;-71
2022/05/19 02:59:59;;;;;;;;;18.75;16.75;;;;;25.22;54.71;100659.06;5076697;27;45506;-68
2022/05/19 03:02:25;;;;;;;;;16.00;15.00;;;;;25.21;54.66;100661.91;5072661;27;45555;-69
2022/05/19 03:04:51;;;;;;;;;17.00;15.00;;;;;25.24;54.70;100669.69;5072900;27;45498;-69
2022/05/19 03:07:16;;;;;;;;;15.25;14.75;;;;;25.23;54.77;100676.09;5088957;27;45705;-70
2022/05/19 03:09:42;;;;;;;;;15.25;15.25;;;;;25.17;54.94;100674.78;5072861;27;45714;-68
2022/05/19 03:12:12;;;;;;;;;14.50;14.50;;;;;25.16;54.95;100675.81;5095152;27;45519;-68
2022/05/19 03:14:37;;;;;;;;;16.50;14.75;;;;;25.14;55.14;100675.91;5096780;27;45508;-70
2022/05/19 03:17:06;;;;;;;;;14.25;14.25;;;;;25.12;55.31;100674.38;5096987;27;45565;-71
2022/05/19 03:19:31;;;;;;;;;13.75;13.25;;;;;25.09;55.43;100664.75;5093125;27;46633;-70
2022/05/19 03:21:56;;;;;;;;;16.50;12.50;;;;;25.10;55.47;100668.28;5079495;27;45579;-68
2022/05/19 03:24:22;;;;;;;;;15.50;15.50;;;;;25.10;55.39;100668.28;5076545;28;45480;-72
2022/05/19 03:26:47;;;;;;;;;19.25;18.75;;;;;25.08;55.46;100670.28;5076677;28;45636;-69
2022/05/19 03:29:12;;;;;;;;;15.50;13.75;;;;;25.09;55.61;100674.66;5081642;27;46022;-71
2022/05/19 03:31:38;;;;;;;;;15.25;13.75;;;;;25.04;55.64;100666.16;5096563;27;45540;-71
2022/05/19 03:34:04;;;;;;;;;14.50;14.50;;;;;25.10;55.46;100679.91;5096731;27;45603;-72
2022/05/19 03:36:30;;;;;;;;;14.50;14.00;;;;;25.08;55.49;100673.81;5096685;27;45611;-72
2022/05/19 03:38:56;;;;;;;;;17.50;15.25;;;;;25.08;55.40;100676.50;5093475;27;45485;-70
2022/05/19 03:41:22;;;;;;;;;14.25;14.25;;;;;25.05;55.38;100678.66;5094987;27;45535;-71
2022/05/19 03:43:47;;;;;;;;;16.75;15.50;;;;;25.07;55.44;100680.19;5096836;27;46010;-71
2022/05/19 03:46:12;;;;;;;;;17.00;16.50;;;;;25.07;55.11;100680.19;5096497;27;45559;-70
2022/05/19 03:48:38;;;;;;;;;15.00;15.00;;;;;25.06;55.36;100683.88;5096525;27;45837;-68
2022/05/19 03:51:09;;;;;;;;;14.25;14.25;;;;;25.06;55.44;100681.16;5095953;27;46135;-70
2022/05/19 03:53:35;;;;;;;;;14.75;14.25;;;;;25.06;55.51;100685.72;5096643;27;45516;-70
2022/05/19 03:56:01;;;;;;;;;15.00;14.00;;;;;25.05;55.21;100686.72;5096654;27;45415;-71
2022/05/19 03:58:26;;;;;;;;;13.50;13.50;;;;;25.04;55.40;100691.25;5096341;27;46297;-71
2022/05/19 04:00:52;;;;;;;;;14.00;14.00;;;;;25.02;55.51;100695.94;5094942;27;45622;-70
2022/05/19 04:03:19;;;;;;;;;14.75;14.75;;;;;25.02;55.44;100692.41;5096386;27;45598;-68
2022/05/19 04:05:45;;;;;;;;;15.00;13.50;;;;;24.97;55.49;100689.28;5096289;27;45590;-69
2022/05/19 04:08:10;;;;;;;;;13.25;12.25;;;;;24.96;55.68;100698.34;5094787;27;48306;-68
2022/05/19 04:10:42;;;;;;;;;12.75;12.75;;;;;24.97;55.91;100694.69;5077412;27;45451;-70
2022/05/19 04:13:08;;;;;;;;;16.75;14.50;;;;;24.96;55.35;100693.84;5096231;27;45509;-69
2022/05/19 04:15:34;;;;;;;;;13.75;13.75;;;;;24.96;55.63;100692.97;5097837;27;45461;-68
2022/05/19 04:17:59;;;;;;;;;13.00;13.00;;;;;24.92;55.84;100689.72;5101423;27;46261;-67
2022/05/19 04:20:29;;;;;;;;;15.25;15.25;;;;;24.95;55.54;100689.41;5098358;27;45406;-71
2022/05/19 04:22:55;;;;;;;;;14.75;13.00;;;;;24.94;55.64;100694.97;5096021;27;45506;-68
2022/05/19 04:25:21;;;;;;;;;16.00;16.00;;;;;24.91;55.53;100693.41;5096073;27;45561;-70
2022/05/19 04:27:46;;;;;;;;;15.00;14.50;;;;;24.88;55.55;100688.31;5094634;27;45488;-70
2022/05/19 04:30:11;;;;;;;;;13.50;13.50;;;;;24.86;55.82;100687.63;5095092;27;45463;-70
2022/05/19 04:32:37;;;;;;;;;14.75;13.75;;;;;24.85;55.61;100689.47;5095786;27;45527;-69
2022/05/19 04:35:03;;;;;;;;;13.75;13.75;;;;;24.84;55.79;100690.44;5095029;27;45471;-69
2022/05/19 04:37:28;;;;;;;;;15.75;15.75;;;;;24.82;55.84;100692.41;5095621;27;45466;-68
2022/05/19 04:39:53;;;;;;;;;16.25;14.25;;;;;24.84;55.45;100694.97;5095005;27;47660;-67
2022/05/19 04:42:19;;;;;;;;;19.25;15.00;;;;;24.85;55.50;100699.34;5095656;27;45437;-70
2022/05/19 04:44:44;;;;;;;;;16.00;14.25;;;;;24.84;55.77;100694.97;5095552;27;45504;-68
2022/05/19 04:47:09;;;;;;;;;17.25;15.25;;;;;24.78;55.41;100696.41;5093100;27;47434;-71
2022/05/19 04:49:35;;;;;;;;;15.75;15.75;;;;;24.84;55.57;100703.03;5093898;27;45414;-66
2022/05/19 04:52:00;;;;;;;;;14.00;14.00;;;;;24.84;55.59;100713.81;5095389;27;45826;-67
2022/05/19 04:54:25;;;;;;;;;18.00;15.00;;;;;24.83;55.47;100718.34;5095227;27;45608;-67
2022/05/19 04:56:51;;;;;;;;;11.25;11.25;;;;;24.84;55.47;100720.03;5095167;27;46105;-70
2022/05/19 04:59:17;;;;;;;;;16.00;15.00;;;;;24.74;55.65;100729.94;5093670;27;45483;-69
2022/05/19 05:01:45;;;;;;;;;14.75;14.75;;;;;24.71;55.79;100749.06;5093962;27;45702;-68
2022/05/19 05:04:11;;;;;;;;;10.25;10.25;;;;;24.69;55.78;100745.69;5075803;27;45455;-67
2022/05/19 05:06:36;;;;;;;;;14.75;14.00;;;;;24.67;55.59;100759.28;5086718;27;46188;-69
2022/05/19 05:09:03;;;;;;;;;15.50;14.50;;;;;24.73;55.95;100773.16;5094871;27;45471;-70
2022/05/19 05:11:28;;;;;;;;;15.00;15.00;;;;;24.71;55.64;100762.50;5089004;27;45442;-71
2022/05/19 05:13:53;;;;;;;;;17.25;15.25;;;;;24.74;55.73;100786.44;5090398;27;45508;-71
2022/05/19 05:16:19;;;;;;;;;15.50;15.50;;;;;24.77;55.88;100833.72;5074568;28;45430;-69
2022/05/19 05:18:44;;;;;;;;;19.50;18.50;;;;;24.71;56.28;100837.81;5074442;28;45451;-69
2022/05/19 05:21:13;;;;;;;;;17.25;16.00;;;;;24.60;56.38;100816.44;5077455;27;45496;-70
2022/05/19 05:23:39;;;;;;;;;14.25;14.25;;;;;24.57;56.86;100792.53;5077850;27;45699;-69
2022/05/19 05:26:06;;;;;;;;;14.25;13.75;;;;;24.58;56.46;100805.84;5074094;28;45582;-71
2022/05/19 05:28:32;;;;;;;;;14.25;13.25;;;;;24.63;56.08;100817.00;5084174;27;46284;-69
2022/05/19 05:30:58;;;;;;;;;14.75;14.00;;;;;24.61;56.44;100815.44;5086037;27;45574;-69
2022/05/19 05:33:23;;;;;;;;;16.00;13.75;;;;;24.54;56.17;100801.72;5094291;27;46132;-68
2022/05/19 05:35:48;;;;;;;;;15.75;15.00;;;;;24.62;55.94;100825.22;5093842;27;45908;-67
2022/05/19 05:38:14;;;;;;;;;14.75;14.75;;;;;24.66;55.87;100799.75;5094181;27;45435;-69
2022/05/19 05:40:39;;;;;;;;;14.00;14.00;;;;;24.70;55.91;100811.94;5086135;27;45533;-70
2022/05/19 05:43:10;;;;;;;;;16.50;16.50;;;;;24.71;55.30;100813.63;5091073;27;45581;-69
2022/05/19 05:45:36;;;;;;;;;14.00;14.00;;;;;24.71;55.58;100815.47;5078876;27;45516;-69
2022/05/19 05:48:02;;;;;;;;;9.75;9.75;;;;;24.72;55.41;100801.00;5083801;27;45522;-68
2022/05/19 05:50:28;;;;;;;;;12.25;12.25;;;;;24.74;55.27;100805.25;5073887;27;45438;-69
2022/05/19 05:52:53;;;;;;;;;16.25;14.00;;;;;24.78;55.31;100819.31;5076953;27;45535;-68
2022/05/19 05:55:19;;;;;;;;;12.75;12.75;;;;;24.84;55.08;100816.03;5074545;27;45489;-69
2022/05/19 05:57:44;;;;;;;;;15.50;15.50;;;;;24.88;54.91;100810.25;5073626;28;45458;-71
2022/05/19 06:00:11;;;;;;;;;13.25;13.25;;;;;24.87;55.18;100811.22;5088553;27;45417;-71
2022/05/19 06:02:37;;;;;;;;;14.75;14.75;;;;;24.89;55.00;100794.94;5092269;27;45476;-67
2022/05/19 06:05:03;;;;;;;;;16.00;15.00;;;;;24.89;54.60;100785.03;5076779;27;46736;-70
2022/05/19 06:07:29;;;;;;;;;15.00;13.00;;;;;24.90;54.68;100792.13;5073846;27;45417;-70
2022/05/19 06:09:56;;;;;;;;;15.75;13.50;;;;;24.91;54.68;100793.81;5077569;27;45476;-68
2022/05/19 06:12:25;;;;;;;;;10.50;10.50;;;;;24.95;54.78;100802.44;5082734;27;45699;-67
2022/05/19 06:14:53;;;;;;;;;13.25;13.25;;;;;24.95;54.87;100809.66;5075816;28;45975;-69
2022/05/19 06:17:18;;;;;;;;;12.75;12.75;;;;;24.91;54.64;100801.88;5073428;27;45503;-69
2022/05/19 06:19:44;;;;;;;;;16.50;15.00;;;;;24.97;54.99;100813.91;5089012;27;45589;-61
2022/05/19 06:22:09;;;;;;;;;12.50;12.50;;;;;25.00;54.54;100816.31;5092813;27;45601;-60
2022/05/19 06:24:34;;;;;;;;;11.00;11.00;;;;;24.98;54.75;100818.28;5093030;27;46007;-61
2022/05/19 06:26:59;;;;;;;;;14.50;13.75;;;;;24.95;54.64;100806.97;5091464;27;45457;-61
2022/05/19 06:29:25;;;;;;;;;14.25;13.00;;;;;25.01;54.56;100809.97;5080916;27;45472;-67
2022/05/19 06:44:21;;;;;;;;;13.25;13.25;;;;;24.95;55.54;100807.81;5088533;27;45785;-67
2022/05/19 06:46:47;;;;;;;;;15.25;15.00;;;;;25.14;55.01;100820.41;5087354;27;45476;-67
2022/05/19 06:49:12;;;;;;;;;27.67;25.00;;;;;25.16;55.20;100821.16;5071687;27;45373;-67
2022/05/19 06:51:38;;;;;;;;;18.50;17.75;;;;;25.13;54.94;100816.03;5071560;28;45399;-67
2022/05/19 06:54:04;;;;;;;;;14.25;14.25;;;;;25.18;54.86;100829.94;5069910;28;48281;-67
2022/05/19 06:56:29;;;;;;;;;13.00;12.50;;;;;25.18;54.74;100832.63;5071629;28;45331;-67
2022/05/19 06:58:56;;;;;;;;;22.00;18.75;;;;;25.13;54.96;100827.63;5071703;27;45376;-67
2022/05/19 07:01:21;;;;;;;;;15.50;15.50;;;;;25.13;55.08;100824.09;5071818;27;45418;-67
2022/05/19 07:03:47;;;;;;;;;23.33;20.33;;;;;25.05;55.24;100823.97;5071467;27;45437;-67
2022/05/19 07:06:12;;;;;;;;;20.33;17.00;;;;;24.99;55.36;100830.78;5071520;27;45410;-67
2022/05/19 07:08:38;;;;;;;;;15.00;15.00;;;;;24.98;55.47;100826.38;5071794;27;45426;-67
2022/05/19 07:11:05;;;;;;;;;18.25;15.75;;;;;24.91;55.65;100828.78;5071284;28;45664;-67
2022/05/19 07:13:31;;;;;;;;;16.00;15.25;;;;;24.95;55.30;100828.50;5071022;27;45769;-66
2022/05/19 07:15:56;;;;;;;;;26.00;25.00;;;;;24.92;55.59;100838.53;5071195;27;45391;-67
2022/05/19 07:18:22;;;;;;;;;14.75;14.00;;;;;24.87;55.63;100839.97;5071178;28;45530;-67
2022/05/19 07:20:48;;;;;;;;;15.75;14.50;;;;;24.89;55.78;100838.84;5071239;28;45549;-67
2022/05/19 07:23:20;;;;;;;;;13.75;13.75;;;;;24.90;55.70;100828.91;5070993;27;45529;-67
2022/05/19 07:25:47;;;;;;;;;16.00;14.50;;;;;24.80;55.76;100834.31;5071248;27;45392;-67
2022/05/19 07:28:13;;;;;;;;;14.75;14.75;;;;;24.80;55.60;100828.94;5071277;28;45444;-67
2022/05/19 07:30:40;;;;;;;;;14.75;14.50;;;;;24.85;55.56;100840.13;5071102;27;45531;-67
2022/05/19 07:33:06;;;;;;;;;15.75;15.75;;;;;24.79;55.86;100824.53;5070755;27;46201;-67
2022/05/19 07:35:34;;;;;;;;;21.00;19.67;;;;;24.77;56.02;100839.97;5070640;28;45506;-67
2022/05/19 07:37:59;;;;;;;;;19.00;17.00;;;;;24.75;55.63;100858.09;5070956;28;45388;-67
2022/05/19 07:40:25;;;;;;;;;17.00;17.00;;;;;24.77;55.65;100850.75;5070845;27;45410;-67
2022/05/19 07:42:50;;;;;;;;;16.25;14.75;;;;;24.80;56.14;100853.16;5078736;27;45484;-67
2022/05/19 07:45:16;;;;;;;;;19.00;17.00;;;;;24.84;55.89;100845.63;5059334;28;45383;-67
2022/05/19 07:47:42;;;;;;;;;20.00;17.67;;;;;24.85;55.85;100844.63;5077613;28;45440;-67
2022/05/19 07:50:10;;;;;;;;;13.67;13.67;;;;;24.84;55.83;100842.94;5077392;28;45626;-67
2022/05/19 07:52:36;;;;;;;;;15.33;15.00;;;;;24.87;56.41;100851.56;5077288;28;45695;-67
2022/05/19 07:55:03;;;;;;;;;18.00;18.00;;;;;24.95;55.62;100861.63;5077089;28;45388;-67
2022/05/19 07:57:28;;;;;;;;;20.00;20.00;;;;;24.98;55.61;100861.34;5077143;28;45386;-66
2022/05/19 07:59:54;;;;;;;;;18.00;15.00;;;;;25.02;55.94;100862.78;5077181;28;45318;-67
2022/05/19 08:02:20;;;;;;;;;21.00;18.67;;;;;25.04;55.76;100865.31;5076960;28;45975;-67
2022/05/19 08:04:45;;;;;;;;;16.00;14.00;;;;;25.04;55.79;100873.38;5077076;28;45430;-67
2022/05/19 08:07:11;;;;;;;;;16.67;16.00;;;;;25.04;55.83;100881.47;5077297;28;45453;-67
2022/05/19 08:17:53;;;;;;;;;24.00;23.67;;;;;25.24;55.32;100898.50;5077186;28;45532;-67
2022/05/19 08:20:19;;;;;;;;;16.00;16.00;;;;;25.32;55.25;100902.19;5076896;28;45470;-67
2022/05/19 08:22:45;;;;;;;;;20.67;19.00;;;;;25.36;55.19;100908.13;5076824;28;45485;-67
2022/05/19 08:25:10;;;;;;;;;18.00;15.25;;;;;25.41;54.97;100905.00;5058931;28;45487;-67
2022/05/19 08:27:35;;;;;;;;;27.67;25.33;;;;;25.41;54.90;100902.31;5076858;28;45522;-67
2022/05/19 08:30:01;;;;;;;;;19.25;19.25;;;;;25.45;54.75;100909.97;5076809;28;45593;-66
2022/05/19 08:32:26;;;;;;;;;20.25;18.75;;;;;25.47;55.38;100912.50;5076723;28;45479;-67
2022/05/19 08:34:52;;;;;;;;;31.67;30.67;;;;;25.49;55.61;100932.06;5076572;28;45452;-67
2022/05/19 08:37:17;;;;;;;;;25.67;23.67;;;;;25.50;55.40;100929.25;5076956;28;45435;-67
2022/05/19 08:39:43;;;;;;;;;27.00;27.00;;;;;25.51;55.45;100941.72;5058638;28;45438;-67
2022/05/19 08:42:12;;;;;;;;;26.33;25.67;;;;;25.46;54.90;100962.00;5076161;28;46251;-67
2022/05/19 08:44:42;;;;;;;;;19.25;19.25;;;;;25.45;55.00;100981.84;5058145;28;45449;-67
2022/05/19 08:47:12;;;;;;;;;27.00;27.00;;;;;25.41;55.15;100966.94;5076673;28;45446;-67
2022/05/19 08:50:03;;;;;;;;;21.00;21.00;;;;;25.38;55.24;100969.94;5076606;28;45366;-67
2022/05/19 08:52:46;;;;;;;;;29.00;29.00;;;;;25.37;54.77;100969.09;5076293;28;45417;-67
2022/05/19 08:55:15;;;;;;;;;22.00;22.00;;;;;25.38;54.31;100978.00;5075498;28;45490;-67
2022/05/19 08:58:04;;;;;;;;;20.67;20.33;;;;;25.33;53.67;100971.22;5076536;28;45470;-67
2022/05/19 09:00:38;;;;;;;;;12.25;12.25;;;;;25.29;53.12;100983.25;5076598;28;45397;-67
2022/05/19 09:03:16;;;;;;;;;15.25;15.25;;;;;25.25;52.44;100997.13;5076419;28;45440;-67
2022/05/19 09:05:53;;;;;;;;;15.75;15.50;;;;;25.28;53.05;100994.16;5057851;28;45419;-67
2022/05/19 09:08:39;;;;;;;;;23.00;21.33;;;;;25.31;52.67;101000.13;5058010;28;45408;-67
2022/05/19 09:11:12;;;;;;;;;18.50;18.50;;;;;25.29;52.54;100996.72;5076236;28;45373;-67
2022/05/19 09:13:51;;;;;;;;;16.25;16.25;;;;;25.27;52.30;101008.59;5075992;28;46022;-67
2022/05/19 09:16:40;;;;;;;;;16.25;16.25;;;;;25.23;52.17;101009.91;5075833;28;45364;-67
2022/05/19 09:19:23;;;;;;;;;17.50;16.25;;;;;25.20;52.18;101018.22;5076082;28;45565;-67
2022/05/19 09:22:04;;;;;;;;;17.00;15.75;;;;;25.16;51.72;101014.97;5076187;28;45439;-67
2022/05/19 09:24:29;;;;;;;;;16.75;16.00;;;;;25.08;51.26;101034.47;5075929;28;46158;-66
2022/05/19 09:26:57;;;;;;;;;14.50;14.25;;;;;24.98;51.40;101028.19;5075881;28;45313;-65
2022/05/19 09:29:50;;;;;;;;;14.75;14.00;;;;;24.98;51.03;101041.66;5075919;28;45395;-67
2022/05/19 09:32:39;;;;;;;;;12.25;12.25;;;;;24.94;51.28;101034.84;5076024;28;45633;-66
2022/05/19 09:35:25;;;;;;;;;16.00;16.00;;;;;24.98;51.31;101033.56;5075628;28;45537;-66
2022/05/19 09:38:07;;;;;;;;;12.00;12.00;;;;;25.00;50.72;101041.53;5075769;28;45424;-67
2022/05/19 09:40:38;;;;;;;;;20.33;20.00;;;;;24.90;50.28;101082.72;5057348;28;45472;-67
2022/05/19 09:43:14;;;;;;;;;20.67;20.67;;;;;24.81;50.38;101096.13;5075359;28;45425;-66
2022/05/19 09:45:49;;;;;;;;;21.00;21.00;;;;;24.75;50.05;101081.38;5075463;28;46438;-66
2022/05/19 09:48:20;;;;;;;;;28.33;27.33;;;;;24.73;50.48;101094.09;5075561;28;45440;-66
2022/05/19 09:50:48;;;;;;;;;25.33;24.33;;;;;24.62;49.60;101091.50;5075518;28;45432;-67
2022/05/19 09:53:21;;;;;;;;;24.33;23.33;;;;;24.57;49.72;101094.56;5075366;28;45558;-66
2022/05/19 09:55:55;;;;;;;;;29.67;29.67;;;;;24.62;49.60;101102.25;5075330;28;45512;-66
2022/05/19 09:58:22;;;;;;;;;28.33;26.67;;;;;24.63;49.57;101112.88;5075264;28;45543;-66
2022/05/19 10:00:58;;;;;;;;;20.00;20.00;;;;;24.64;48.67;101111.91;5075230;28;45491;-66
2022/05/19 10:03:42;;;;;;;;;20.33;20.33;;;;;24.65;48.59;101120.81;5075183;28;45335;-66
2022/05/19 10:06:24;;;;;;;;;19.50;18.25;;;;;24.63;48.88;101098.56;5074976;28;45460;-66
2022/05/19 10:09:06;;;;;;;;;15.67;15.33;;;;;24.67;48.47;101092.81;5074877;28;45495;-66
2022/05/19 10:11:32;;;;;;;;;17.33;17.33;;;;;24.63;48.64;101094.03;5074969;28;45428;-66
2022/05/19 10:14:05;;;;;;;;;17.50;17.50;;;;;24.66;48.36;101103.69;5074777;28;45335;-66
2022/05/19 10:16:30;;;;;;;;;18.67;18.67;;;;;24.68;48.51;101115.16;5074621;28;45549;-66
2022/05/19 10:19:24;;;;;;;;;14.00;13.75;;;;;24.61;48.14;101128.31;5075148;28;45364;-66
2022/05/19 10:22:22;;;;;;;;;14.75;14.75;;;;;24.65;48.08;101147.72;5074805;28;45454;-66
2022/05/19 10:24:53;;;;;;;;;10.75;10.75;;;;;24.67;47.50;101151.13;5063541;28;45633;-67
2022/05/19 10:33:51;;;;;;;;;12.00;10.50;;;;;24.86;46.70;101145.00;5074848;28;45457;-67
2022/05/19 10:36:51;;;;;;;;;15.50;12.25;;;;;24.97;45.79;101134.16;5074321;28;45370;-66
2022/05/19 10:39:33;;;;;;;;;6.75;6.75;;;;;25.09;45.12;101133.09;5074179;28;45564;-67
2022/05/19 10:42:17;;;;;;;;;9.00;9.00;;;;;25.24;44.96;101140.81;5074344;28;45474;-67
2022/05/19 10:45:21;;;;;;;;;8.75;8.75;;;;;25.34;43.86;101136.31;5074252;28;46082;-67
2022/05/19 10:47:56;;;;;;;;;8.75;8.75;;;;;25.39;43.79;101133.19;5074226;28;45460;-68
2022/05/19 10:50:35;;;;;;;;;11.00;11.00;;;;;25.37;43.56;101141.44;5074223;28;46189;-67
2022/05/19 10:53:24;;;;;;;;;8.25;8.25;;;;;25.45;43.54;101146.13;5074144;28;45464;-67
2022/05/19 10:56:07;;;;;;;;;6.50;6.50;;;;;25.51;42.72;101143.72;5074357;28;45460;-67
2022/05/19 10:58:55;;;;;;;;;9.25;9.25;;;;;25.53;43.46;101146.28;5073903;28;45456;-67
2022/05/19 11:01:56;;;;;;;;;7.50;6.25;;;;;25.60;42.43;101138.50;5073089;28;46207;-67
2022/05/19 11:04:39;;;;;;;;;6.00;6.00;;;;;25.66;43.14;101136.13;5073239;28;45459;-67
2022/05/19 11:07:12;;;;;;;;;12.00;12.00;;;;;25.64;42.93;101131.84;5055608;28;45485;-67
2022/05/19 11:10:11;;;;;;;;;7.00;7.00;;;;;25.61;42.53;101122.22;5073982;28;45389;-67
2022/05/19 11:13:03;;;;;;;;;6.75;6.75;;;;;25.59;42.53;101126.88;5070264;28;45482;-67
2022/05/19 11:15:50;;;;;;;;;8.00;8.00;;;;;25.59;42.61;101124.19;5068884;28;45696;-68
2022/05/19 11:18:21;;;;;;;;;18.75;17.00;;;;;25.64;42.57;101139.94;5054779;28;45514;-67
2022/05/19 11:21:03;;;;;;;;;13.75;13.75;;;;;25.64;42.17;101137.25;5065150;28;45387;-69
2022/05/19 11:23:50;;;;;;;;;53.00;44.67;;;;;25.69;42.38;101122.34;5076118;28;46582;-69
2022/05/19 11:26:38;;;;;;;;;11.50;10.50;;;;;25.74;42.60;101125.50;5070106;28;45521;-67
2022/05/19 11:29:06;;;;;;;;;6.75;6.75;;;;;25.77;42.21;101124.38;5059454;28;45346;-66
2022/05/19 11:31:39;;;;;;;;;6.00;6.00;;;;;25.78;41.55;101116.13;5044709;28;45444;-66
2022/05/19 11:34:21;;;;;;;;;11.25;9.75;;;;;25.84;41.07;101117.44;5066166;28;47047;-66
2022/05/19 11:37:06;;;;;;;;;12.75;12.75;;;;;25.76;41.24;101095.69;5056828;28;45370;-66
2022/05/19 11:39:42;;;;;;;;;7.50;7.50;;;;;25.89;41.20;101109.78;5059848;28;45494;-66
2022/05/19 11:42:25;;;;;;;;;6.00;5.75;;;;;25.93;41.93;101113.06;5076571;28;45438;-67
2022/05/19 11:44:51;;;;;;;;;5.00;5.00;;;;;25.98;40.89;101126.97;5076955;28;45400;-67
2022/05/19 11:56:18;;;;;;;;;6.00;6.00;;;;;26.25;39.68;101150.53;5040968;28;45889;-66
2022/05/19 11:58:44;;;;;;;;;10.50;10.50;;;;;26.31;39.01;101147.25;5056566;28;45360;-67
2022/05/19 12:01:19;;;;;;;;;2.25;2.25;;;;;26.40;39.21;101145.53;5056311;28;45412;-66